Time;durP1;ratioP1;P1;durP2;ratioP2;P2;SDS_P1;SDS_P2;PMS_P1;PMS_P2;Temp;Humidity;BMP_temperature;BMP_pressure;BME280_temperature;BME280_humidity;BME280_pressure;Samples;Min_cycle;Max_cycle;Signal;HPM_P1;HPM_P2
2023/03/24 00:00:16;;;;;;;2.25;1.02;;;;;;;20.66;47.92;99835.84;5059619;27;96861;-75
2023/03/24 00:02:45;;;;;;;2.33;0.82;;;;;;;20.65;48.02;99839.59;5069007;27;96934;-75
2023/03/24 00:05:15;;;;;;;1.27;0.95;;;;;;;20.67;47.83;99831.22;5050768;27;97543;-75
2023/03/24 00:07:43;;;;;;;2.42;1.40;;;;;;;20.65;48.05;99825.97;5068273;27;96797;-75
2023/03/24 00:10:16;;;;;;;1.60;1.00;;;;;;;20.67;48.15;99825.75;5065080;27;96772;-75
2023/03/24 00:12:45;;;;;;;1.75;0.88;;;;;;;20.65;47.92;99817.78;5070217;27;97072;-74
2023/03/24 00:15:18;;;;;;;1.80;0.93;;;;;;;20.64;48.03;99816.09;5054919;27;98525;-75
2023/03/24 00:17:49;;;;;;;1.67;0.80;;;;;;;20.63;47.92;99823.44;5069032;27;96717;-75
2023/03/24 00:20:18;;;;;;;2.40;0.80;;;;;;;20.62;48.05;99808.09;5068349;27;96735;-74
2023/03/24 00:22:49;;;;;;;2.10;0.80;;;;;;;20.65;47.80;99797.84;5033397;27;97746;-74
2023/03/24 00:25:18;;;;;;;1.90;0.75;;;;;;;20.66;48.02;99791.34;5071967;27;96661;-74
2023/03/24 00:27:47;;;;;;;1.35;0.80;;;;;;;20.65;47.99;99785.03;5071284;27;96718;-74
2023/03/24 00:30:16;;;;;;;1.48;0.88;;;;;;;20.65;47.82;99790.50;5065957;27;97427;-75
2023/03/24 00:32:44;;;;;;;2.15;0.90;;;;;;;20.64;48.06;99783.34;5061880;27;96821;-75
2023/03/24 00:35:13;;;;;;;1.40;0.70;;;;;;;20.64;47.86;99780.63;5033802;27;97455;-74
2023/03/24 00:37:41;;;;;;;2.55;0.82;;;;;;;20.66;47.96;99784.00;5067888;27;97782;-75
2023/03/24 00:40:12;;;;;;;1.20;0.90;;;;;;;20.66;47.86;99781.28;5068624;27;96753;-75
2023/03/24 00:42:44;;;;;;;1.95;1.00;;;;;;;20.65;47.89;99778.75;5067600;27;96581;-75
2023/03/24 00:45:14;;;;;;;1.40;0.68;;;;;;;20.63;47.77;99778.94;5023730;27;97905;-75
2023/03/24 00:47:43;;;;;;;1.58;0.77;;;;;;;20.62;47.84;99785.44;5049497;27;96829;-75
2023/03/24 00:50:16;;;;;;;2.70;0.80;;;;;;;20.61;47.61;99775.56;5068232;27;96940;-75
2023/03/24 00:52:46;;;;;;;2.45;0.80;;;;;;;20.62;48.00;99769.91;5067328;27;96662;-75
2023/03/24 00:55:15;;;;;;;1.85;0.93;;;;;;;20.63;47.85;99757.13;5069967;27;97963;-74
2023/03/24 00:57:50;;;;;;;1.70;0.85;;;;;;;20.64;47.65;99761.53;5043324;27;96816;-74
2023/03/24 01:00:22;;;;;;;1.30;0.82;;;;;;;20.63;47.73;99757.13;5046976;27;96719;-75
2023/03/24 01:02:54;;;;;;;1.88;0.70;;;;;;;20.63;48.05;99751.66;5066685;27;97951;-74
2023/03/24 01:05:22;;;;;;;2.85;1.02;;;;;;;20.64;47.98;99747.88;5050095;27;99786;-75
2023/03/24 01:07:52;;;;;;;1.42;0.80;;;;;;;20.63;47.92;99749.78;5059154;27;97999;-75
2023/03/24 01:10:24;;;;;;;1.55;0.80;;;;;;;20.62;47.65;99741.78;5050481;27;97004;-75
2023/03/24 01:12:54;;;;;;;1.77;0.80;;;;;;;20.64;48.00;99736.97;5062494;27;99400;-75
2023/03/24 01:15:25;;;;;;;1.38;0.75;;;;;;;20.62;47.65;99739.06;5068386;27;97249;-75
2023/03/24 01:17:53;;;;;;;1.13;0.60;;;;;;;20.62;47.78;99730.88;5049864;27;97388;-75
2023/03/24 01:20:21;;;;;;;1.27;0.75;;;;;;;20.62;47.84;99730.88;5045560;27;96864;-75
2023/03/24 01:22:50;;;;;;;1.83;0.90;;;;;;;20.63;47.64;99733.41;5065406;27;99065;-75
2023/03/24 01:25:19;;;;;;;0.68;0.60;;;;;;;20.62;47.72;99730.88;5068241;27;96707;-75
2023/03/24 01:27:47;;;;;;;1.20;0.68;;;;;;;20.62;47.94;99728.16;5070967;27;96647;-75
2023/03/24 01:30:17;;;;;;;1.30;0.70;;;;;;;20.62;47.86;99717.25;5050897;27;97015;-75
2023/03/24 01:32:44;;;;;;;1.40;0.90;;;;;;;20.63;47.65;99716.19;5071251;27;98138;-75
2023/03/24 01:35:10;;;;;;;1.52;0.80;;;;;;;20.63;47.54;99717.03;5068615;27;96736;-75
2023/03/24 01:37:38;;;;;;;2.22;1.00;;;;;;;20.62;47.88;99711.78;5069023;27;97002;-75
2023/03/24 01:40:08;;;;;;;1.20;0.90;;;;;;;20.62;47.94;99709.06;5068639;27;96776;-75
2023/03/24 01:42:37;;;;;;;1.10;0.77;;;;;;;20.61;47.50;99701.91;5073860;27;98670;-75
2023/03/24 01:45:40;;;;;;;1.35;0.68;;;;;;;20.59;47.97;99698.53;5068095;27;97204;-75
2023/03/24 01:48:15;;;;;;;1.42;0.70;;;;;;;20.62;47.61;99687.22;5066541;27;97307;-74
2023/03/24 01:50:45;;;;;;;0.70;0.63;;;;;;;20.62;47.56;99693.53;5051119;27;96715;-75
2023/03/24 01:53:12;;;;;;;2.03;0.82;;;;;;;20.62;47.75;99693.53;5054107;27;98245;-75
2023/03/24 01:55:41;;;;;;;1.33;0.75;;;;;;;20.63;47.58;99689.75;5062698;27;97529;-75
2023/03/24 01:58:08;;;;;;;0.90;0.52;;;;;;;20.61;47.48;99680.94;5051202;27;96630;-75
2023/03/24 02:00:49;;;;;;;1.15;0.90;;;;;;;20.62;47.65;99673.59;5053732;27;96968;-75
2023/03/24 02:03:38;;;;;;;1.08;0.55;;;;;;;20.61;47.72;99675.47;5069237;27;97289;-75
2023/03/24 02:06:07;;;;;;;1.27;0.70;;;;;;;20.57;47.50;99676.94;5055476;27;96601;-74
2023/03/24 02:08:49;;;;;;;1.80;0.70;;;;;;;20.56;47.79;99668.94;5053711;27;96752;-75
2023/03/24 02:11:16;;;;;;;1.75;0.57;;;;;;;20.56;47.98;99663.50;5073024;27;97615;-75
2023/03/24 02:13:49;;;;;;;0.98;0.50;;;;;;;20.55;47.92;99670.84;5047835;27;98052;-75
2023/03/24 02:17:06;;;;;;;1.10;0.60;;;;;;;20.54;47.98;99652.78;5053640;27;99213;-75
2023/03/24 02:19:46;;;;;;;0.90;0.68;;;;;;;20.57;48.16;99662.44;5035882;27;97018;-75
2023/03/24 02:22:39;;;;;;;1.10;0.63;;;;;;;20.56;47.85;99655.31;5072131;27;96866;-75
2023/03/24 02:25:15;;;;;;;0.80;0.68;;;;;;;20.55;47.88;99649.00;5048842;27;100700;-75
2023/03/24 02:27:57;;;;;;;1.13;0.68;;;;;;;20.55;47.83;99654.47;5069933;27;96678;-75
2023/03/24 02:30:48;;;;;;;1.60;0.80;;;;;;;20.58;47.72;99650.50;5053697;27;96852;-75
2023/03/24 02:33:45;;;;;;;1.23;0.73;;;;;;;20.58;47.81;99650.50;5065179;27;97488;-75
2023/03/24 02:36:49;;;;;;;1.23;0.70;;;;;;;20.58;47.91;99658.69;5066013;27;99517;-75
2023/03/24 02:39:36;;;;;;;1.27;0.70;;;;;;;20.60;47.82;99659.31;5051945;27;99064;-75
2023/03/24 02:42:16;;;;;;;0.88;0.70;;;;;;;20.61;47.82;99663.72;5037250;27;97656;-75
2023/03/24 02:44:45;;;;;;;0.55;0.50;;;;;;;20.59;47.71;99663.94;5069937;27;96708;-75
2023/03/24 02:47:19;;;;;;;1.25;0.60;;;;;;;20.62;47.68;99659.94;5057717;27;98576;-76
2023/03/24 02:49:54;;;;;;;1.20;0.70;;;;;;;20.64;47.67;99657.88;5069653;27;99293;-75
2023/03/24 02:52:39;;;;;;;0.65;0.45;;;;;;;20.63;47.85;99662.47;5067913;27;97688;-75
2023/03/24 02:55:15;;;;;;;1.13;0.60;;;;;;;20.63;47.79;99650.72;5053576;27;96736;-75
2023/03/24 02:57:45;;;;;;;0.98;0.50;;;;;;;20.63;47.84;99651.56;5067390;27;96934;-75
2023/03/24 03:00:35;;;;;;;1.92;0.60;;;;;;;20.68;47.90;99655.56;5064351;27;96681;-75
2023/03/24 03:03:10;;;;;;;1.25;0.70;;;;;;;20.67;47.77;99664.81;5053384;27;96862;-75
2023/03/24 03:05:45;;;;;;;0.90;0.60;;;;;;;20.65;47.68;99658.69;5051025;27;97287;-75
2023/03/24 03:08:16;;;;;;;1.67;0.50;;;;;;;20.65;47.85;99661.44;5051082;27;98854;-75
2023/03/24 03:10:45;;;;;;;0.75;0.52;;;;;;;20.64;47.75;99666.03;5070033;27;96769;-75
2023/03/24 03:13:32;;;;;;;0.80;0.57;;;;;;;20.66;47.62;99674.88;5069493;27;96730;-75
2023/03/24 03:16:06;;;;;;;0.98;0.50;;;;;;;20.65;47.70;99678.66;5071646;27;97286;-75
2023/03/24 03:18:42;;;;;;;1.15;0.60;;;;;;;20.65;47.63;99670.47;5067421;27;96683;-75
2023/03/24 03:21:14;;;;;;;1.58;0.52;;;;;;;20.63;47.93;99675.28;5066755;27;96527;-75
2023/03/24 03:23:48;;;;;;;1.15;0.60;;;;;;;20.63;47.61;99676.13;5067882;27;96668;-75
2023/03/24 03:26:18;;;;;;;1.42;0.55;;;;;;;20.61;47.72;99675.47;5070808;27;98439;-75
2023/03/24 03:28:56;;;;;;;1.42;0.68;;;;;;;20.62;48.06;99684.50;5048180;27;97703;-75
2023/03/24 03:31:28;;;;;;;1.05;0.65;;;;;;;20.60;47.71;99692.06;5051128;27;99743;-75
2023/03/24 03:34:07;;;;;;;1.23;0.60;;;;;;;20.59;48.01;99715.75;5071293;27;96694;-75
2023/03/24 03:36:49;;;;;;;1.40;0.50;;;;;;;20.58;47.89;99719.53;5068936;27;97104;-75
2023/03/24 03:39:33;;;;;;;0.88;0.50;;;;;;;20.59;47.87;99712.19;5068266;27;97063;-75
2023/03/24 03:42:05;;;;;;;0.70;0.60;;;;;;;20.58;48.03;99729.59;5067721;27;100130;-75
2023/03/24 03:44:32;;;;;;;0.65;0.43;;;;;;;20.59;48.08;99743.03;5047092;27;96688;-75
2023/03/24 03:46:59;;;;;;;1.55;0.63;;;;;;;20.59;48.25;99753.94;5069697;27;97051;-75
2023/03/24 03:49:36;;;;;;;0.80;0.60;;;;;;;20.59;47.84;99781.22;5048108;27;96970;-75
2023/03/24 03:52:04;;;;;;;0.70;0.43;;;;;;;20.59;47.93;99783.13;5068032;27;96726;-75
2023/03/24 03:54:31;;;;;;;1.00;0.65;;;;;;;20.60;48.13;99796.56;5052165;27;96674;-75
2023/03/24 03:56:58;;;;;;;0.90;0.73;;;;;;;20.60;47.94;99798.44;5068574;27;96815;-75
2023/03/24 03:59:35;;;;;;;0.82;0.40;;;;;;;20.61;47.93;99800.13;5050214;27;100219;-75
2023/03/24 04:02:41;;;;;;;0.50;0.40;;;;;;;20.61;48.15;99813.75;5033084;27;100308;-75
2023/03/24 04:05:46;;;;;;;0.85;0.50;;;;;;;20.61;47.92;99800.97;5064766;27;96737;-75
2023/03/24 04:08:25;;;;;;;0.88;0.50;;;;;;;20.62;47.78;99810.84;5065538;27;96825;-74
2023/03/24 04:11:39;;;;;;;0.73;0.30;;;;;;;20.61;47.72;99816.50;5067330;27;97449;-75
2023/03/24 04:14:14;;;;;;;1.05;0.50;;;;;;;20.61;48.08;99816.50;5022106;27;96992;-74
2023/03/24 04:17:05;;;;;;;0.50;0.40;;;;;;;20.61;47.92;99822.78;5046051;27;96647;-75
2023/03/24 04:20:05;;;;;;;1.00;0.50;;;;;;;20.59;47.99;99829.47;5068503;27;97095;-75
2023/03/24 04:22:48;;;;;;;0.63;0.60;;;;;;;20.58;47.83;99836.81;5049653;27;96816;-74
2023/03/24 04:25:33;;;;;;;1.00;0.55;;;;;;;20.59;48.05;99845.84;5067269;27;99456;-75
2023/03/24 04:28:05;;;;;;;0.47;0.40;;;;;;;20.59;48.05;99860.34;5048131;27;96742;-74
2023/03/24 04:30:43;;;;;;;0.90;0.50;;;;;;;20.60;47.82;99877.56;5048368;27;96867;-75
2023/03/24 04:33:24;;;;;;;0.80;0.63;;;;;;;20.59;47.95;99882.16;5047481;27;100813;-74
2023/03/24 04:36:05;;;;;;;0.95;0.50;;;;;;;20.59;47.81;99890.34;5030869;27;96761;-75
2023/03/24 04:38:52;;;;;;;1.17;0.55;;;;;;;20.59;47.90;99884.03;5048910;27;96903;-74
2023/03/24 04:41:30;;;;;;;0.50;0.40;;;;;;;20.57;47.95;99876.06;5036314;27;96977;-75
2023/03/24 04:44:10;;;;;;;0.70;0.43;;;;;;;20.57;47.98;99891.59;5049209;27;100013;-74
2023/03/24 04:46:58;;;;;;;0.65;0.38;;;;;;;20.56;48.02;99888.00;5051374;27;96705;-74
2023/03/24 04:49:26;;;;;;;1.02;0.55;;;;;;;20.56;47.86;99884.44;5051235;27;96857;-74
2023/03/24 04:51:53;;;;;;;0.50;0.35;;;;;;;20.57;48.06;99897.03;5048518;27;97345;-75
2023/03/24 04:54:24;;;;;;;0.70;0.43;;;;;;;20.56;47.90;99901.66;5051579;27;99113;-75
2023/03/24 04:57:00;;;;;;;0.60;0.40;;;;;;;20.56;48.02;99903.53;5062790;27;97494;-75
2023/03/24 04:59:33;;;;;;;1.05;0.45;;;;;;;20.55;48.10;99910.88;5050908;27;97347;-75
2023/03/24 05:02:01;;;;;;;0.52;0.47;;;;;;;20.55;47.94;99924.50;5051843;27;96716;-75
2023/03/24 05:04:29;;;;;;;1.00;0.60;;;;;;;20.55;47.86;99915.47;5070529;27;96791;-74
2023/03/24 05:07:03;;;;;;;0.85;0.40;;;;;;;20.55;48.32;99919.06;5052033;27;100306;-75
2023/03/24 05:09:30;;;;;;;0.90;0.57;;;;;;;20.57;47.87;99930.63;5050381;27;97299;-75
2023/03/24 05:11:58;;;;;;;1.10;0.40;;;;;;;20.57;48.16;99930.63;5066942;27;96760;-74
2023/03/24 05:14:30;;;;;;;1.15;0.60;;;;;;;20.59;47.79;99927.69;5051612;27;97634;-75
2023/03/24 05:16:57;;;;;;;0.60;0.40;;;;;;;20.58;47.90;99918.66;5054789;27;98639;-75
2023/03/24 05:19:23;;;;;;;0.70;0.50;;;;;;;20.58;48.17;99936.91;5046054;27;96914;-75
2023/03/24 05:21:50;;;;;;;0.60;0.45;;;;;;;20.57;48.02;99933.34;5072621;27;96802;-75
2023/03/24 05:24:17;;;;;;;0.77;0.40;;;;;;;20.58;47.97;99937.75;5066808;27;100043;-75
2023/03/24 05:26:46;;;;;;;1.00;0.50;;;;;;;20.59;48.18;99939.44;5071520;27;98120;-74
2023/03/24 05:29:16;;;;;;;0.77;0.60;;;;;;;20.60;47.80;99952.06;5037001;27;96906;-75
2023/03/24 05:31:44;;;;;;;1.27;0.60;;;;;;;20.59;47.97;99950.38;5053422;27;96757;-75
2023/03/24 05:34:22;;;;;;;0.95;0.50;;;;;;;20.62;47.92;99960.03;5044185;27;99096;-74
2023/03/24 05:37:20;;;;;;;0.68;0.55;;;;;;;20.63;47.67;99956.28;5053465;27;96919;-74
2023/03/24 05:39:49;;;;;;;0.80;0.50;;;;;;;20.60;48.02;99959.38;5049504;27;97109;-74
2023/03/24 05:42:38;;;;;;;0.90;0.50;;;;;;;20.61;47.72;99974.72;5067161;27;96889;-74
2023/03/24 05:45:06;;;;;;;0.77;0.47;;;;;;;20.63;47.45;99976.22;5048809;27;96932;-75
2023/03/24 05:47:33;;;;;;;0.82;0.50;;;;;;;20.63;47.96;99978.09;5067647;27;99058;-74
2023/03/24 05:49:59;;;;;;;0.57;0.40;;;;;;;20.63;47.71;99973.47;5065576;27;97376;-74
2023/03/24 05:52:27;;;;;;;1.35;0.50;;;;;;;20.63;47.74;99972.63;5063657;27;96736;-75
2023/03/24 05:55:06;;;;;;;0.65;0.45;;;;;;;20.62;47.75;99976.41;5048823;27;96877;-75
2023/03/24 05:57:33;;;;;;;0.60;0.45;;;;;;;20.64;47.78;99985.25;5050993;27;97093;-74
2023/03/24 06:00:23;;;;;;;0.52;0.43;;;;;;;20.64;47.45;99993.44;5064973;27;96640;-75
2023/03/24 06:02:57;;;;;;;0.77;0.40;;;;;;;20.64;47.79;99996.16;5052735;27;96880;-74
2023/03/24 06:05:30;;;;;;;1.15;0.60;;;;;;;20.66;47.82;100001.41;5052037;27;97106;-74
2023/03/24 06:07:57;;;;;;;0.82;0.50;;;;;;;20.66;47.61;99995.97;5030121;27;99424;-74
2023/03/24 06:10:27;;;;;;;1.50;0.47;;;;;;;20.66;47.44;99996.81;5051019;27;96902;-75
2023/03/24 06:12:55;;;;;;;0.93;0.45;;;;;;;20.68;47.52;99999.34;5052642;27;96831;-75
2023/03/24 06:15:26;;;;;;;0.93;0.43;;;;;;;20.68;47.74;99997.44;5057640;27;99769;-75
2023/03/24 06:17:59;;;;;;;1.17;0.50;;;;;;;20.68;47.64;99994.72;5033923;27;98746;-75
2023/03/24 06:20:32;;;;;;;0.93;0.50;;;;;;;20.69;47.74;100001.88;5064114;27;96616;-74
2023/03/24 06:22:59;;;;;;;1.23;0.70;;;;;;;20.70;47.57;100000.81;5070690;27;98357;-74
2023/03/24 06:25:34;;;;;;;0.93;0.45;;;;;;;20.69;47.58;99998.28;5066821;27;98176;-74
2023/03/24 06:28:17;;;;;;;0.65;0.43;;;;;;;20.68;47.27;100008.38;5067338;27;97268;-75
2023/03/24 06:30:45;;;;;;;0.88;0.55;;;;;;;20.69;47.51;100010.06;5052035;27;96878;-75
2023/03/24 06:33:17;;;;;;;0.90;0.50;;;;;;;20.69;47.45;100020.13;5052940;27;96837;-75
2023/03/24 06:35:44;;;;;;;0.88;0.50;;;;;;;20.69;47.36;100012.78;5053257;27;97021;-75
2023/03/24 06:38:14;;;;;;;1.35;0.40;;;;;;;20.69;47.55;100012.78;5050757;27;100370;-75
2023/03/24 06:40:42;;;;;;;1.10;0.50;;;;;;;20.70;47.31;100016.34;5050289;27;96677;-75
2023/03/24 06:43:09;;;;;;;0.98;0.60;;;;;;;20.70;47.68;100013.63;5053069;27;97455;-76
2023/03/24 06:45:38;;;;;;;0.80;0.40;;;;;;;20.70;47.49;100019.94;5052751;27;99005;-75
2023/03/24 06:48:08;;;;;;;0.77;0.50;;;;;;;20.71;47.25;100024.34;5065733;27;98673;-75
2023/03/24 06:50:36;;;;;;;1.85;0.80;;;;;;;20.70;47.27;100027.28;5068266;27;97308;-75
2023/03/24 06:53:07;;;;;;;0.90;0.55;;;;;;;20.70;47.23;100030.84;5036255;27;97439;-76
2023/03/24 06:55:35;;;;;;;0.57;0.40;;;;;;;20.69;47.31;100040.06;5047847;27;100268;-75
2023/03/24 06:58:03;;;;;;;1.50;0.40;;;;;;;20.68;47.46;100041.09;5045859;27;97015;-75
2023/03/24 07:00:41;;;;;;;0.85;0.43;;;;;;;20.66;47.28;100048.66;5036046;27;97253;-76
2023/03/24 07:03:25;;;;;;;1.10;0.60;;;;;;;20.63;47.47;100040.84;5050021;27;97060;-76
2023/03/24 07:06:11;;;;;;;0.93;0.45;;;;;;;20.61;47.28;100035.59;5070086;27;96713;-75
2023/03/24 07:08:39;;;;;;;0.95;0.50;;;;;;;20.60;47.71;100043.97;5053094;27;99764;-75
2023/03/24 07:11:08;;;;;;;0.70;0.40;;;;;;;20.61;47.41;100041.03;5064692;27;97256;-76
2023/03/24 07:13:37;;;;;;;1.95;0.57;;;;;;;20.62;47.62;100045.47;5045808;27;97464;-75
2023/03/24 07:16:04;;;;;;;0.85;0.43;;;;;;;20.65;47.57;100043.38;5052401;27;99165;-76
2023/03/24 07:18:33;;;;;;;0.95;0.50;;;;;;;20.63;47.35;100052.59;5064789;27;98912;-76
2023/03/24 07:21:04;;;;;;;1.17;0.60;;;;;;;20.61;47.33;100060.13;5052463;27;97045;-76
2023/03/24 07:23:32;;;;;;;0.95;0.50;;;;;;;20.62;47.38;100060.97;5065190;27;96976;-75
2023/03/24 07:26:03;;;;;;;1.02;0.30;;;;;;;20.61;47.62;100079.22;5067447;27;99571;-76
2023/03/24 07:28:50;;;;;;;0.70;0.40;;;;;;;20.62;47.66;100067.28;5066424;27;97948;-74
2023/03/24 07:31:49;;;;;;;0.80;0.40;;;;;;;20.64;47.48;100075.28;5056037;27;96812;-75
2023/03/24 07:34:16;;;;;;;0.57;0.40;;;;;;;20.63;47.42;100068.97;5068053;27;96801;-76
2023/03/24 07:36:42;;;;;;;0.82;0.43;;;;;;;20.63;47.47;100062.66;5031633;27;98242;-75
2023/03/24 07:39:13;;;;;;;1.35;0.60;;;;;;;20.63;47.30;100063.50;5051570;27;97488;-75
2023/03/24 07:41:40;;;;;;;1.45;0.50;;;;;;;20.64;47.61;100056.19;5045601;27;97285;-75
2023/03/24 07:44:16;;;;;;;0.82;0.47;;;;;;;20.63;47.60;100063.50;5043330;27;96797;-76
2023/03/24 07:46:48;;;;;;;1.00;0.60;;;;;;;20.66;47.46;100072.34;5065190;27;99973;-76
2023/03/24 07:49:15;;;;;;;0.60;0.40;;;;;;;20.63;47.72;100079.03;5043592;27;100391;-75
2023/03/24 07:52:07;;;;;;;1.38;0.70;;;;;;;20.61;47.68;100073.78;5052124;27;97096;-75
2023/03/24 07:54:40;;;;;;;2.90;0.60;;;;;;;20.61;47.74;100072.94;5054491;27;96752;-75
2023/03/24 07:57:09;;;;;;;0.88;0.60;;;;;;;20.62;47.49;100082.81;5040430;27;98891;-75
2023/03/24 07:59:36;;;;;;;1.15;0.60;;;;;;;20.63;47.83;100079.88;5049522;27;98226;-75
2023/03/24 08:02:18;;;;;;;1.65;0.50;;;;;;;20.63;47.55;100095.41;5048630;27;97202;-76
2023/03/24 08:05:19;;;;;;;1.60;0.50;;;;;;;20.66;47.42;100092.28;5052047;27;96655;-76
2023/03/24 08:08:18;;;;;;;1.15;0.60;;;;;;;20.70;47.56;100109.97;5052144;27;98170;-76
2023/03/24 08:10:45;;;;;;;1.10;0.52;;;;;;;20.69;47.63;100100.09;5068707;27;97331;-76
2023/03/24 08:13:12;;;;;;;0.73;0.50;;;;;;;20.70;47.66;100107.25;5058508;27;96717;-75
2023/03/24 08:15:38;;;;;;;1.00;0.55;;;;;;;20.66;47.41;100121.47;5067368;27;97402;-76
2023/03/24 08:22:48;;;;;;;1.33;0.68;;;;;;;20.65;47.52;100117.88;4958608;27;96955;-76
2023/03/24 08:25:25;;;;;;;1.63;0.85;;;;;;;20.65;47.44;100122.50;5069201;27;96599;-76
2023/03/24 08:28:01;;;;;;;2.03;0.65;;;;;;;20.65;47.51;100122.50;5049712;27;97281;-77
2023/03/24 08:30:27;;;;;;;0.77;0.50;;;;;;;20.66;47.52;100124.19;5068346;27;97337;-74
2023/03/24 08:32:58;;;;;;;1.20;0.70;;;;;;;20.66;47.46;100126.91;5046624;27;99126;-75
2023/03/24 08:35:33;;;;;;;2.65;0.90;;;;;;;20.64;47.49;100132.56;5061882;27;96589;-75
2023/03/24 08:38:00;;;;;;;2.47;0.75;;;;;;;20.59;48.03;100126.84;5068996;27;96550;-75
2023/03/24 08:40:33;;;;;;;1.88;0.60;;;;;;;20.61;47.78;100136.53;5051316;27;97349;-76
2023/03/24 08:43:03;;;;;;;1.58;0.80;;;;;;;20.62;47.97;100130.03;5044856;27;98077;-76
2023/03/24 08:45:31;;;;;;;3.63;0.80;;;;;;;20.59;47.81;100138.59;5069081;27;97376;-77
2023/03/24 08:48:00;;;;;;;1.20;0.60;;;;;;;20.67;48.04;100142.25;5068874;27;97166;-74
2023/03/24 08:50:31;;;;;;;1.38;0.60;;;;;;;20.79;48.09;100144.28;5052627;27;99466;-74
2023/03/24 08:52:57;;;;;;;1.95;0.55;;;;;;;20.90;47.88;100148.44;5058334;27;97345;-77
2023/03/24 08:55:25;;;;;;;1.65;0.65;;;;;;;20.98;47.48;100142.00;5065817;27;97320;-79
2023/03/24 08:57:52;;;;;;;1.98;0.70;;;;;;;21.02;47.32;100146.88;5052977;27;96999;-79
2023/03/24 09:00:20;;;;;;;0.90;0.50;;;;;;;21.06;47.03;100150.94;5060494;27;97638;-80
2023/03/24 09:02:49;;;;;;;3.60;0.50;;;;;;;21.08;47.30;100131.63;5034546;27;98583;-77
2023/03/24 09:05:19;;;;;;;1.52;0.55;;;;;;;21.09;47.60;100141.50;5047910;27;96946;-76
2023/03/24 09:08:02;;;;;;;2.10;0.65;;;;;;;21.05;47.30;100146.50;5060040;27;96782;-71
